Sault Sainte Marie, MI (49783)

6:52 AM EDT on April 21, 2015 (GMT -0400)
Sault Ste Marie Municipal / Sanderson Field | | Change Station
CLOSE
Current Station
Airport
Location: Sault Ste Marie,
Elevation: 715 ft
Nearby Weather Stations

Elev 715 ft 46.48 °N, 84.36 °W | Updated 49 minutes ago

Overcast
Overcast
35 °F
Feels Like 31 °F
N
5
Wind Variable Wind from South

Today
High -- | Low -- °F
--% Chance of Precip.
Yesterday
High -- | Low -- °F
Precip. -- in
6:40 AM 8:33 PM
Waxing Crescent, 9% visible
Pressure 29.34 in
Visibility 10.0 miles
Clouds Few 900 ft
Scattered Clouds 3900 ft
Overcast 6500 ft
Windchill 31 °F
Dew Point 33 °F
Humidity 92%
Rainfall 0.02 in
Snow Depth Not available.
UV 0 out of 12
Pollen 2.40 out of 12
Air Quality Not available.
Flu Activity Regional
SPECI KANJ 211003Z AUTO 17004KT 10SM FEW009 SCT039 OVC065 02/01 A2934 RMK AO2 T00170006

More Conditions Fewer Conditions

Pressure 29.34 in
Visibility 10.0 miles
Clouds Few 900 ft
Scattered Clouds 3900 ft
Overcast 6500 ft
Windchill 31 °F
Dew Point 33 °F
Humidity 92%
Rainfall 0.02 in
Snow Depth Not available.
UV 0 out of 12
Pollen 2.40 out of 12
Air Quality Not available.
Flu Activity Regional
SPECI KANJ 211003Z AUTO 17004KT 10SM FEW009 SCT039 OVC065 02/01 A2934 RMK AO2 T00170006

More Conditions Fewer Conditions

Nowcast | as of 6:00 am EDT on April 21, 2015

At 7 am...mostly cloudy. Chance of showers and snow showers. Temperature 36. South winds 8 mph. At 9 am...mostly cloudy. Chance of rain and snow. Temperature 37. South winds 9 mph. At 11 am...mostly cloudy. Scattered showers. Temperature 40. South winds 10 mph. At 1 PM...showers. Temperature 42. Southwest winds 12 mph.

×

10-Day Weather Forecast

Almanac

Astronomy

Apr. 21, 2015 Rise Set
Actual Time
Civil Twilight
Nautical Twilight
Astronomical Twilight
Moon
Length of Visible Light
Length of Day
Tomorrow will be .
, % of the Moon is Illuminated

Today's Extremes

State Highs State Lows

Community

WunderPhotos

Upload Photos

1,815,340 photos uploaded!

WunderBlogs® & News

Nearby

Air Quality

  Air Quality AQ Index Pollutant
Not available.

Snow Depth

Station Depth Elevation

Earthquake Activity

City Distance Mag. Time & Date
Minimum magnitude displayed is 2.5.

Coastal Water Temperatures

Place Temperature

Stations

Nearby Weather Stations

Station Location Temp. Windchill Dew Point Humidity Wind Precip. Elev Updated Type